createdAt,value
2022-09-11T00:02:26.620Z,96266.00
2022-09-11T00:06:31.499Z,96257.00
2022-09-11T00:10:37.879Z,96264.00
2022-09-11T00:14:41.166Z,96255.00
2022-09-11T00:18:44.188Z,96255.00
2022-09-11T00:22:49.573Z,96253.00
2022-09-11T00:26:52.641Z,96256.00
2022-09-11T00:31:00.333Z,96253.00
2022-09-11T00:35:03.379Z,96247.00
2022-09-11T00:39:40.230Z,96241.00
2022-09-11T00:44:00.749Z,96248.00
2022-09-11T00:48:04.556Z,96243.00
2022-09-11T00:52:11.514Z,96240.00
2022-09-11T00:56:15.280Z,96242.00
2022-09-11T01:00:52.345Z,96235.00
2022-09-11T01:04:55.628Z,96235.00
2022-09-11T01:09:00.193Z,96223.00
2022-09-11T01:13:37.071Z,96233.00
2022-09-11T01:17:50.555Z,96231.00
2022-09-11T01:22:09.639Z,96223.00
2022-09-11T01:26:37.674Z,96228.00
2022-09-11T01:30:47.644Z,96222.00
2022-09-11T01:35:18.311Z,96227.00
2022-09-11T01:39:25.943Z,96219.00
2022-09-11T01:43:31.634Z,96214.00
2022-09-11T01:47:37.021Z,96216.00
2022-09-11T01:51:42.205Z,96223.00
2022-09-11T01:55:50.773Z,96218.00
2022-09-11T01:59:58.538Z,96218.00
2022-09-11T02:04:07.548Z,96216.00
2022-09-11T02:08:16.385Z,96208.00
2022-09-11T02:12:22.919Z,96200.00
2022-09-11T02:16:36.155Z,96209.00
2022-09-11T02:21:02.675Z,96203.00
2022-09-11T02:25:06.752Z,96198.00
2022-09-11T02:29:10.485Z,96193.00
2022-09-11T02:33:44.294Z,96195.00
2022-09-11T02:37:57.020Z,96215.00
2022-09-11T02:42:17.161Z,96197.00
2022-09-11T02:46:36.804Z,96203.00
2022-09-11T02:50:45.474Z,96195.00
2022-09-11T02:54:55.217Z,96199.00
2022-09-11T02:59:25.278Z,96199.00
2022-09-11T03:03:28.417Z,96193.00
2022-09-11T03:07:31.494Z,96197.00
2022-09-11T03:11:35.968Z,96193.00
2022-09-11T03:16:09.616Z,96192.00
2022-09-11T03:20:12.946Z,96190.00
2022-09-11T03:24:17.204Z,96191.00
2022-09-11T03:28:22.819Z,96193.00
2022-09-11T03:32:56.410Z,96189.00
2022-09-11T03:37:00.391Z,96181.00
2022-09-11T03:41:04.044Z,96177.00
2022-09-11T03:45:09.508Z,96175.00
2022-09-11T03:49:12.558Z,96175.00
2022-09-11T03:53:16.098Z,96171.00
2022-09-11T03:57:19.097Z,96169.00
2022-09-11T04:01:24.206Z,96168.00
2022-09-11T04:05:27.834Z,96163.00
2022-09-11T04:10:04.906Z,96157.00
2022-09-11T04:14:08.454Z,96160.00
2022-09-11T04:18:12.917Z,96154.00
2022-09-11T04:22:46.604Z,96166.00
2022-09-11T04:26:50.120Z,96169.00
2022-09-11T04:30:53.300Z,96162.00
2022-09-11T04:35:29.970Z,96156.00
2022-09-11T04:39:34.582Z,96156.00
2022-09-11T04:43:40.009Z,96151.00
2022-09-11T04:47:43.598Z,96156.00
2022-09-11T04:52:20.948Z,96155.00
2022-09-11T04:56:26.184Z,96147.00
2022-09-11T05:00:29.223Z,96160.00
2022-09-11T05:04:32.640Z,96167.00
2022-09-11T05:13:54.131Z,96165.00
2022-09-11T05:17:57.298Z,96173.00
2022-09-11T05:22:00.318Z,96177.00
2022-09-11T05:26:37.761Z,96174.00
2022-09-11T05:30:42.605Z,96183.00
2022-09-11T05:34:45.606Z,96185.00
2022-09-11T05:38:48.938Z,96198.00
2022-09-11T05:43:22.983Z,96199.00
2022-09-11T05:47:27.750Z,96203.00
2022-09-11T05:51:33.814Z,96215.00
2022-09-11T05:55:36.889Z,96212.00
2022-09-11T05:59:40.155Z,96215.00
2022-09-11T06:03:45.230Z,96217.00
2022-09-11T06:07:48.248Z,96237.00
2022-09-11T06:11:51.330Z,96238.00
2022-09-11T06:15:54.371Z,96243.00
2022-09-11T06:19:59.326Z,96252.00
2022-09-11T06:24:33.215Z,96254.00
2022-09-11T06:28:36.874Z,96256.00
2022-09-11T06:32:42.366Z,96262.00
2022-09-11T06:36:51.839Z,96267.00
2022-09-11T06:40:55.877Z,96268.00
2022-09-11T06:44:58.886Z,96267.00
2022-09-11T06:49:02.276Z,96283.00
2022-09-11T06:53:06.793Z,96284.00
2022-09-11T06:57:10.019Z,96283.00
2022-09-11T07:01:14.937Z,96281.00
2022-09-11T07:05:17.944Z,96285.00
2022-09-11T07:09:22.189Z,96282.00
2022-09-11T07:13:55.684Z,96289.00
2022-09-11T07:17:58.497Z,96292.00
2022-09-11T07:22:01.386Z,96301.00
2022-09-11T07:26:39.867Z,96306.00
2022-09-11T07:30:43.051Z,96307.00
2022-09-11T07:34:47.642Z,96310.00
2022-09-11T07:39:24.473Z,96316.00
2022-09-11T07:43:28.763Z,96325.00
2022-09-11T07:47:33.865Z,96327.00
2022-09-11T07:51:37.909Z,96331.00
2022-09-11T07:56:12.352Z,96340.00
2022-09-11T08:00:17.399Z,96343.00
2022-09-11T08:04:20.443Z,96343.00
2022-09-11T08:13:39.098Z,96355.00
2022-09-11T08:17:43.280Z,96365.00
2022-09-11T08:21:47.880Z,96378.00
2022-09-11T08:25:50.994Z,96381.00
2022-09-11T08:29:54.095Z,96389.00
2022-09-11T08:34:32.507Z,96393.00
2022-09-11T08:38:35.702Z,96402.00
2022-09-11T08:42:39.180Z,96409.00
2022-09-11T08:47:19.050Z,96416.00
2022-09-11T08:51:23.363Z,96414.00
2022-09-11T08:55:39.480Z,96421.00
2022-09-11T09:00:06.111Z,96412.00
2022-09-11T09:04:31.646Z,96417.00
2022-09-11T09:08:52.214Z,96415.00
2022-09-11T09:13:33.779Z,96430.00
2022-09-11T09:17:41.496Z,96432.00
2022-09-11T09:21:51.489Z,96437.00
2022-09-11T09:25:57.236Z,96442.00
2022-09-11T09:30:03.187Z,96435.00
2022-09-11T09:34:09.790Z,96450.00
2022-09-11T09:38:44.154Z,96447.00
2022-09-11T09:43:12.202Z,96452.00
2022-09-11T09:47:15.797Z,96456.00
2022-09-11T09:51:19.423Z,96461.00
2022-09-11T09:55:54.367Z,96451.00
2022-09-11T10:00:03.575Z,96467.00
2022-09-11T10:04:12.684Z,96456.00
2022-09-11T10:08:27.791Z,96472.00
2022-09-11T10:12:31.517Z,96469.00
2022-09-11T10:16:35.990Z,96468.00
2022-09-11T10:20:38.911Z,96475.00
2022-09-11T10:24:43.858Z,96474.00
2022-09-11T10:28:48.064Z,96483.00
2022-09-11T10:32:52.270Z,96484.00
2022-09-11T10:37:27.511Z,96478.00
2022-09-11T10:41:34.183Z,96491.00
2022-09-11T10:45:37.142Z,96496.00
2022-09-11T10:50:17.007Z,96487.00
2022-09-11T10:54:38.740Z,96500.00
2022-09-11T10:58:44.279Z,96500.00
2022-09-11T11:03:19.832Z,96494.00
2022-09-11T11:07:35.380Z,96497.00
2022-09-11T11:12:01.511Z,96503.00
2022-09-11T11:16:15.979Z,96496.00
2022-09-11T11:20:28.866Z,96501.00
2022-09-11T11:24:45.486Z,96511.00
2022-09-11T11:29:02.150Z,96505.00
2022-09-11T11:33:50.577Z,96512.00
2022-09-11T11:38:01.701Z,96515.00
2022-09-11T11:42:11.881Z,96520.00
2022-09-11T11:46:22.089Z,96521.00
2022-09-11T11:50:31.930Z,96516.00
2022-09-11T11:54:43.066Z,96510.00
2022-09-11T11:58:51.236Z,96512.00
2022-09-11T12:03:23.787Z,96512.00
2022-09-11T12:07:30.565Z,96538.00
2022-09-11T12:11:34.731Z,96529.00
2022-09-11T12:16:11.186Z,96532.00
2022-09-11T12:20:29.908Z,96528.00
2022-09-11T12:24:54.564Z,96528.00
2022-09-11T12:29:30.630Z,96534.00
2022-09-11T12:33:55.520Z,96532.00
2022-09-11T12:38:03.294Z,96532.00
2022-09-11T12:42:43.232Z,96535.00
2022-09-11T12:47:16.532Z,96531.00
2022-09-11T12:51:42.941Z,96532.00
2022-09-11T12:55:56.085Z,96520.00
2022-09-11T13:00:03.706Z,96523.00
2022-09-11T13:04:17.043Z,96520.00
2022-09-11T13:08:23.441Z,96523.00
2022-09-11T13:12:59.968Z,96513.00
2022-09-11T13:17:04.931Z,96517.00
2022-09-11T13:21:41.790Z,96515.00
2022-09-11T13:25:45.091Z,96513.00
2022-09-11T13:29:49.703Z,96512.00
2022-09-11T13:34:27.309Z,96520.00
2022-09-11T13:38:35.107Z,96525.00
2022-09-11T13:42:40.989Z,96515.00
2022-09-11T13:46:51.794Z,96532.00
2022-09-11T13:50:54.779Z,96528.00
2022-09-11T13:55:00.964Z,96520.00
2022-09-11T13:59:42.992Z,96520.00
2022-09-11T14:03:48.908Z,96524.00
2022-09-11T14:08:24.821Z,96515.00
2022-09-11T14:12:30.431Z,96524.00
2022-09-11T14:16:36.126Z,96521.00
2022-09-11T14:21:14.222Z,96524.00
2022-09-11T14:25:22.168Z,96522.00
2022-09-11T14:29:28.567Z,96510.00
2022-09-11T14:33:31.339Z,96526.00
2022-09-11T14:38:09.681Z,96517.00
2022-09-11T14:42:16.844Z,96518.00
2022-09-11T14:46:21.008Z,96518.00
2022-09-11T14:50:24.629Z,96517.00
2022-09-11T14:55:01.001Z,96516.00
2022-09-11T14:59:03.785Z,96518.00
2022-09-11T15:03:08.360Z,96516.00
2022-09-11T15:07:13.278Z,96514.00
2022-09-11T15:11:16.528Z,96514.00
2022-09-11T15:15:20.258Z,96511.00
2022-09-11T15:19:55.369Z,96507.00
2022-09-11T15:23:58.920Z,96506.00
2022-09-11T15:28:02.050Z,96514.00
2022-09-11T15:32:38.969Z,96519.00
2022-09-11T15:36:44.400Z,96515.00
2022-09-11T15:40:47.691Z,96505.00
2022-09-11T15:44:51.937Z,96510.00
2022-09-11T15:48:54.991Z,96516.00
2022-09-11T15:53:30.753Z,96516.00
2022-09-11T15:57:34.619Z,96519.00
2022-09-11T16:01:38.235Z,96520.00
2022-09-11T16:05:42.333Z,96513.00
2022-09-11T16:10:17.342Z,96504.00
2022-09-11T16:14:22.252Z,96499.00
2022-09-11T16:18:25.351Z,96509.00
2022-09-11T16:22:31.443Z,96511.00
2022-09-11T16:26:38.292Z,96495.00
2022-09-11T16:30:44.420Z,96503.00
2022-09-11T16:34:50.223Z,96511.00
2022-09-11T16:38:54.970Z,96521.00
2022-09-11T16:42:59.758Z,96512.00
2022-09-11T16:47:02.843Z,96524.00
2022-09-11T16:51:06.553Z,96519.00
2022-09-11T16:55:10.775Z,96525.00
2022-09-11T16:59:15.747Z,96522.00
2022-09-11T17:03:19.154Z,96527.00
2022-09-11T17:07:22.441Z,96523.00
2022-09-11T17:16:42.528Z,96522.00
2022-09-11T17:20:45.598Z,96526.00
2022-09-11T17:25:22.946Z,96528.00
2022-09-11T17:29:25.979Z,96525.00
2022-09-11T17:33:32.210Z,96517.00
2022-09-11T17:37:35.229Z,96527.00
2022-09-11T17:42:13.400Z,96520.00
2022-09-11T17:46:20.275Z,96528.00
2022-09-11T17:50:25.406Z,96532.00
2022-09-11T17:54:59.358Z,96533.00
2022-09-11T17:59:02.532Z,96535.00
2022-09-11T18:03:06.285Z,96532.00
2022-09-11T18:07:42.301Z,96534.00
2022-09-11T18:11:47.915Z,96539.00
2022-09-11T18:15:51.582Z,96550.00
2022-09-11T18:20:25.509Z,96542.00
2022-09-11T18:24:30.064Z,96544.00
2022-09-11T18:28:34.088Z,96542.00
2022-09-11T18:33:10.798Z,96540.00
2022-09-11T18:37:15.102Z,96531.00
2022-09-11T18:41:19.700Z,96540.00
2022-09-11T18:45:23.570Z,96548.00
2022-09-11T18:49:59.019Z,96543.00
2022-09-11T18:54:03.518Z,96560.00
2022-09-11T18:58:07.909Z,96555.00
2022-09-11T19:02:11.393Z,96545.00
2022-09-11T19:06:15.989Z,96558.00
2022-09-11T19:10:19.307Z,96553.00
2022-09-11T19:14:23.974Z,96560.00
2022-09-11T19:18:27.596Z,96564.00
2022-09-11T19:22:31.285Z,96560.00
2022-09-11T19:26:37.527Z,96566.00
2022-09-11T19:31:14.434Z,96561.00
2022-09-11T19:35:18.030Z,96567.00
2022-09-11T19:39:21.905Z,96567.00
2022-09-11T19:43:25.434Z,96567.00
2022-09-11T19:47:30.970Z,96566.00
2022-09-11T19:51:35.914Z,96563.00
2022-09-11T19:55:38.973Z,96558.00
2022-09-11T20:00:15.978Z,96562.00
2022-09-11T20:04:20.421Z,96554.00
2022-09-11T20:08:23.554Z,96556.00
2022-09-11T20:13:00.709Z,96566.00
2022-09-11T20:17:04.798Z,96560.00
2022-09-11T20:21:40.682Z,96569.00
2022-09-11T20:25:43.651Z,96566.00
2022-09-11T20:29:46.729Z,96566.00
2022-09-11T20:33:50.529Z,96562.00
2022-09-11T20:38:25.860Z,96563.00
2022-09-11T20:42:29.343Z,96566.00
2022-09-11T20:46:32.528Z,96566.00
2022-09-11T20:50:35.896Z,96566.00
2022-09-11T20:54:40.608Z,96566.00
2022-09-11T20:59:14.906Z,96563.00
2022-09-11T21:03:17.944Z,96562.00
2022-09-11T21:07:21.028Z,96560.00
2022-09-11T21:11:59.204Z,96556.00
2022-09-11T21:16:05.527Z,96553.00
2022-09-11T21:20:09.982Z,96560.00
2022-09-11T21:24:14.069Z,96558.00
2022-09-11T21:28:49.990Z,96547.00
2022-09-11T21:32:53.535Z,96554.00
2022-09-11T21:36:56.834Z,96559.00
2022-09-11T21:41:02.483Z,96555.00
2022-09-11T21:45:07.655Z,96553.00
2022-09-11T21:49:10.874Z,96558.00
2022-09-11T21:53:13.877Z,96551.00
2022-09-11T21:57:17.444Z,96544.00
2022-09-11T22:01:23.070Z,96547.00
2022-09-11T22:05:26.115Z,96549.00
2022-09-11T22:10:03.449Z,96539.00
2022-09-11T22:14:07.210Z,96548.00
2022-09-11T22:18:12.173Z,96548.00
2022-09-11T22:22:16.051Z,96552.00
2022-09-11T22:26:52.733Z,96546.00
2022-09-11T22:30:55.812Z,96537.00
2022-09-11T22:35:00.287Z,96536.00
2022-09-11T22:39:05.411Z,96541.00
2022-09-11T22:43:08.676Z,96546.00
2022-09-11T22:47:45.737Z,96543.00
2022-09-11T22:51:50.233Z,96536.00
2022-09-11T22:55:54.397Z,96537.00
2022-09-11T22:59:57.531Z,96541.00
2022-09-11T23:04:00.845Z,96532.00
2022-09-11T23:08:39.588Z,96536.00
2022-09-11T23:12:43.606Z,96544.00
2022-09-11T23:16:46.678Z,96541.00
2022-09-11T23:20:53.903Z,96538.00
2022-09-11T23:25:29.217Z,96529.00
2022-09-11T23:29:32.321Z,96532.00
2022-09-11T23:33:35.538Z,96537.00
2022-09-11T23:37:41.115Z,96534.00
2022-09-11T23:42:15.877Z,96535.00
2022-09-11T23:46:19.623Z,96533.00
2022-09-11T23:50:22.789Z,96522.00
2022-09-11T23:54:25.941Z,96526.00
2022-09-11T23:58:30.413Z,96510.00
